createdAt,value
2022-11-03T00:01:06.395Z,97583.94
2022-11-03T00:03:34.627Z,97585.16
2022-11-03T00:06:05.919Z,97573.16
2022-11-03T00:08:35.192Z,97578.72
2022-11-03T00:11:06.067Z,97580.31
2022-11-03T00:13:34.325Z,97583.22
2022-11-03T00:16:02.814Z,97578.63
2022-11-03T00:18:31.036Z,97583.56
2022-11-03T00:21:00.522Z,97573.63
2022-11-03T00:23:29.788Z,97576.66
2022-11-03T00:26:06.350Z,97579.81
2022-11-03T00:28:35.019Z,97590.16
2022-11-03T00:31:03.695Z,97581.06
2022-11-03T00:33:33.320Z,97576.78
2022-11-03T00:36:01.924Z,97580.44
2022-11-03T00:38:30.243Z,97584.47
2022-11-03T00:40:59.440Z,97572.06
2022-11-03T00:43:29.776Z,97571.22
2022-11-03T00:45:58.017Z,97564.91
2022-11-03T00:48:32.108Z,97563.81
2022-11-03T00:51:07.296Z,97570.59
2022-11-03T00:53:36.510Z,97561.84
2022-11-03T00:56:04.996Z,97561.84
2022-11-03T00:58:34.665Z,97560.88
2022-11-03T01:01:04.304Z,97562.13
2022-11-03T01:03:33.640Z,97566.97
2022-11-03T01:06:15.689Z,97568.50
2022-11-03T01:08:43.919Z,97555.63
2022-11-03T01:11:27.058Z,97556.03
2022-11-03T01:13:56.665Z,97553.59
2022-11-03T01:16:24.872Z,97560.13
2022-11-03T01:18:53.208Z,97561.59
2022-11-03T01:21:21.482Z,97557.69
2022-11-03T01:23:49.761Z,97552.47
2022-11-03T01:26:17.985Z,97550.63
2022-11-03T01:28:47.041Z,97552.22
2022-11-03T01:31:17.951Z,97542.25
2022-11-03T01:33:46.749Z,97545.06
2022-11-03T01:36:15.486Z,97543.56
2022-11-03T01:38:44.045Z,97544.19
2022-11-03T01:41:13.842Z,97547.47
2022-11-03T01:43:42.109Z,97531.47
2022-11-03T01:46:14.236Z,97538.44
2022-11-03T01:49:04.453Z,97536.50
2022-11-03T01:51:32.685Z,97529.22
2022-11-03T01:54:01.223Z,97529.09
2022-11-03T01:56:30.714Z,97522.91
2022-11-03T01:58:58.967Z,97524.28
2022-11-03T02:01:27.351Z,97516.78
2022-11-03T02:03:58.812Z,97516.19
2022-11-03T02:06:27.453Z,97507.19
2022-11-03T02:08:57.864Z,97506.31
2022-11-03T02:11:40.269Z,97505.84
2022-11-03T02:14:12.787Z,97510.78
2022-11-03T02:16:44.914Z,97503.09
2022-11-03T02:19:20.794Z,97504.06
2022-11-03T02:21:55.485Z,97496.16
2022-11-03T02:24:26.009Z,97499.56
2022-11-03T02:26:56.442Z,97494.53
2022-11-03T02:29:24.650Z,97484.69
2022-11-03T02:31:57.457Z,97483.00
2022-11-03T02:34:29.328Z,97480.97
2022-11-03T02:36:58.300Z,97472.56
2022-11-03T02:39:27.588Z,97469.28
2022-11-03T02:41:57.959Z,97465.31
2022-11-03T02:44:26.606Z,97462.41
2022-11-03T02:46:57.183Z,97451.94
2022-11-03T02:49:25.429Z,97455.97
2022-11-03T02:52:01.141Z,97446.63
2022-11-03T02:54:30.776Z,97442.63
2022-11-03T02:57:02.614Z,97439.94
2022-11-03T02:59:32.473Z,97450.41
2022-11-03T03:02:03.110Z,97443.22
2022-11-03T03:04:33.353Z,97447.00
2022-11-03T03:07:03.253Z,97446.63
2022-11-03T03:09:33.027Z,97440.78
2022-11-03T03:12:02.623Z,97434.16
2022-11-03T03:14:32.054Z,97429.34
2022-11-03T03:17:01.788Z,97425.25
2022-11-03T03:19:36.517Z,97419.28
2022-11-03T03:22:06.326Z,97424.84
2022-11-03T03:24:39.785Z,97429.81
2022-11-03T03:27:10.727Z,97418.00
2022-11-03T03:29:40.856Z,97422.78
2022-11-03T03:32:10.127Z,97421.28
2022-11-03T03:34:39.378Z,97416.81
2022-11-03T03:37:07.628Z,97414.09
2022-11-03T03:39:38.013Z,97417.22
2022-11-03T03:42:06.443Z,97408.44
2022-11-03T03:44:36.052Z,97413.91
2022-11-03T03:47:05.389Z,97412.34
2022-11-03T03:49:33.628Z,97410.38
2022-11-03T03:52:01.923Z,97404.50
2022-11-03T03:54:30.442Z,97409.53
2022-11-03T03:57:00.978Z,97396.78
2022-11-03T03:59:29.393Z,97407.31
2022-11-03T04:01:59.655Z,97405.69
2022-11-03T04:04:27.950Z,97397.38
2022-11-03T04:07:09.960Z,97397.78
2022-11-03T04:09:38.185Z,97396.94
2022-11-03T04:12:20.795Z,97392.00
2022-11-03T04:15:03.081Z,97387.69
2022-11-03T04:20:33.661Z,97387.41
2022-11-03T04:23:01.930Z,97379.63
2022-11-03T04:25:30.146Z,97385.50
2022-11-03T04:27:58.413Z,97382.31
2022-11-03T04:30:26.953Z,97380.94
2022-11-03T04:32:56.570Z,97374.03
2022-11-03T04:35:25.770Z,97370.66
2022-11-03T04:37:57.400Z,97376.66
2022-11-03T04:40:25.938Z,97345.63
2022-11-03T04:42:54.445Z,97357.78
2022-11-03T04:45:25.247Z,97346.09
2022-11-03T04:47:53.595Z,97347.72
2022-11-03T04:50:24.242Z,97349.72
2022-11-03T04:52:55.385Z,97348.00
2022-11-03T04:55:23.698Z,97345.69
2022-11-03T04:57:52.010Z,97342.75
2022-11-03T05:00:20.816Z,97342.63
2022-11-03T05:02:53.099Z,97331.81
2022-11-03T05:05:26.540Z,97333.44
2022-11-03T05:07:55.887Z,97326.41
2022-11-03T05:10:25.779Z,97326.78
2022-11-03T05:12:54.075Z,97333.09
2022-11-03T05:15:30.541Z,97325.13
2022-11-03T05:17:59.489Z,97320.50
2022-11-03T05:20:35.964Z,97317.97
2022-11-03T05:23:04.966Z,97314.81
2022-11-03T05:25:38.105Z,97310.78
2022-11-03T05:28:11.201Z,97311.34
2022-11-03T05:30:39.715Z,97304.13
2022-11-03T05:33:17.083Z,97306.41
2022-11-03T05:35:47.156Z,97308.03
2022-11-03T05:38:17.524Z,97302.38
2022-11-03T05:40:45.778Z,97289.72
2022-11-03T05:43:15.126Z,97289.38
2022-11-03T05:45:43.351Z,97284.59
2022-11-03T05:48:15.447Z,97287.44
2022-11-03T05:50:44.005Z,97285.72
2022-11-03T05:53:27.071Z,97269.78
2022-11-03T05:55:55.338Z,97259.78
2022-11-03T05:58:25.682Z,97265.75
2022-11-03T06:00:53.965Z,97261.38
2022-11-03T06:03:24.922Z,97259.56
2022-11-03T06:05:53.449Z,97256.84
2022-11-03T06:10:58.452Z,97258.66
2022-11-03T06:13:28.324Z,97246.84
2022-11-03T06:15:58.744Z,97251.78
2022-11-03T06:18:30.003Z,97247.88
2022-11-03T06:20:59.858Z,97251.94
2022-11-03T06:23:29.475Z,97253.94
2022-11-03T06:25:57.760Z,97250.28
2022-11-03T06:28:27.350Z,97255.63
2022-11-03T06:30:55.677Z,97253.38
2022-11-03T06:33:25.333Z,97247.75
2022-11-03T06:35:55.437Z,97249.47
2022-11-03T06:38:24.361Z,97245.50
2022-11-03T06:40:54.313Z,97244.69
2022-11-03T06:43:26.353Z,97237.94
2022-11-03T06:45:55.936Z,97229.59
2022-11-03T06:48:27.069Z,97224.38
2022-11-03T06:50:55.591Z,97220.31
2022-11-03T06:53:27.545Z,97215.81
2022-11-03T06:55:57.203Z,97205.78
2022-11-03T06:58:28.543Z,97200.44
2022-11-03T07:01:02.859Z,97201.81
2022-11-03T07:03:33.619Z,97194.78
2022-11-03T07:06:03.443Z,97186.59
2022-11-03T07:08:33.205Z,97170.41
2022-11-03T07:11:05.786Z,97176.03
2022-11-03T07:13:34.819Z,97177.19
2022-11-03T07:16:03.343Z,97182.38
2022-11-03T07:18:34.861Z,97184.22
2022-11-03T07:21:05.907Z,97183.50
2022-11-03T07:23:35.230Z,97180.00
2022-11-03T07:26:14.490Z,97171.13
2022-11-03T07:28:50.368Z,97158.28
2022-11-03T07:31:21.747Z,97153.34
2022-11-03T07:33:49.987Z,97155.59
2022-11-03T07:36:20.125Z,97149.13
2022-11-03T07:38:51.518Z,97151.41
2022-11-03T07:41:22.443Z,97153.22
2022-11-03T07:43:57.495Z,97142.66
2022-11-03T07:46:26.713Z,97157.75
2022-11-03T07:48:56.925Z,97144.88
2022-11-03T07:51:26.428Z,97139.28
2022-11-03T07:53:55.633Z,97144.22
2022-11-03T07:56:26.842Z,97139.13
2022-11-03T07:58:56.979Z,97145.19
2022-11-03T08:01:28.576Z,97139.41
2022-11-03T08:04:02.144Z,97136.16
2022-11-03T08:06:30.409Z,97128.09
2022-11-03T08:09:00.868Z,97120.06
2022-11-03T08:11:30.619Z,97116.53
2022-11-03T08:13:58.962Z,97106.25
2022-11-03T08:16:27.465Z,97106.78
2022-11-03T08:18:55.684Z,97101.84
2022-11-03T08:21:23.986Z,97106.50
2022-11-03T08:23:52.363Z,97097.97
2022-11-03T08:26:20.580Z,97107.31
2022-11-03T08:28:50.227Z,97097.31
2022-11-03T08:31:18.780Z,97097.09
2022-11-03T08:34:04.522Z,97101.47
2022-11-03T08:36:42.561Z,97097.81
2022-11-03T08:39:11.324Z,97098.72
2022-11-03T08:41:39.611Z,97094.91
2022-11-03T08:44:09.225Z,97087.75
2022-11-03T08:46:37.478Z,97092.47
2022-11-03T08:49:05.780Z,97088.22
2022-11-03T08:51:33.989Z,97076.81
2022-11-03T08:54:02.274Z,97072.53
2022-11-03T08:56:30.868Z,97069.50
2022-11-03T08:58:59.116Z,97071.44
2022-11-03T09:01:28.929Z,97059.59
2022-11-03T09:03:57.247Z,97054.13
2022-11-03T09:06:25.843Z,97045.06
2022-11-03T09:11:42.327Z,97039.09
2022-11-03T09:14:10.708Z,97031.19
2022-11-03T09:16:40.367Z,97021.53
2022-11-03T09:19:08.591Z,97027.56
2022-11-03T09:21:37.623Z,97022.97
2022-11-03T09:24:06.427Z,97008.53
2022-11-03T09:26:35.098Z,97005.31
2022-11-03T09:29:03.581Z,97000.44
2022-11-03T09:31:31.806Z,96988.50
2022-11-03T09:34:01.527Z,96980.03
2022-11-03T09:36:29.818Z,96977.88
2022-11-03T09:38:58.531Z,96969.91
2022-11-03T09:41:58.082Z,96965.44
2022-11-03T09:44:28.366Z,96955.94
2022-11-03T09:46:58.574Z,96943.88
2022-11-03T09:49:28.588Z,96944.81
2022-11-03T09:51:57.125Z,96935.06
2022-11-03T09:54:27.097Z,96917.59
2022-11-03T09:56:55.445Z,96913.13
2022-11-03T09:59:24.492Z,96911.00
2022-11-03T10:01:53.967Z,96905.50
2022-11-03T10:04:24.509Z,96911.59
2022-11-03T10:06:54.197Z,96915.28
2022-11-03T10:09:23.504Z,96906.38
2022-11-03T10:11:52.005Z,96908.56
2022-11-03T10:14:20.218Z,96898.13
2022-11-03T10:16:53.809Z,96882.19
2022-11-03T10:19:25.751Z,96872.25
2022-11-03T10:21:55.448Z,96867.72
2022-11-03T10:24:23.809Z,96874.81
2022-11-03T10:26:54.844Z,96863.41
2022-11-03T10:29:24.317Z,96864.03
2022-11-03T10:31:53.604Z,96852.63
2022-11-03T10:34:26.689Z,96843.53
2022-11-03T10:37:13.415Z,96834.47
2022-11-03T10:39:41.778Z,96835.63
2022-11-03T10:42:10.927Z,96817.47
2022-11-03T10:44:39.570Z,96817.78
2022-11-03T10:47:08.142Z,96809.56
2022-11-03T10:49:43.341Z,96813.78
2022-11-03T10:52:21.937Z,96816.44
2022-11-03T10:54:50.644Z,96800.97
2022-11-03T10:57:19.107Z,96811.22
2022-11-03T10:59:48.989Z,96795.09
2022-11-03T11:02:18.835Z,96796.28
2022-11-03T11:04:49.139Z,96772.38
2022-11-03T11:07:23.521Z,96764.84
2022-11-03T11:09:51.892Z,96760.47
2022-11-03T11:12:20.758Z,96748.84
2022-11-03T11:14:56.701Z,96752.03
2022-11-03T11:17:46.395Z,96744.81
2022-11-03T11:20:33.657Z,96733.34
2022-11-03T11:23:31.399Z,96724.59
2022-11-03T11:26:15.510Z,96737.75
2022-11-03T11:28:45.688Z,96737.56
2022-11-03T11:31:30.108Z,96720.03
2022-11-03T11:34:27.890Z,96714.97
2022-11-03T11:37:25.633Z,96693.81
2022-11-03T11:39:54.138Z,96721.25
2022-11-03T11:44:59.497Z,96720.81
2022-11-03T11:47:34.465Z,96706.66
2022-11-03T11:50:13.108Z,96707.03
2022-11-03T11:52:42.705Z,96698.66
2022-11-03T11:55:17.880Z,96684.16
2022-11-03T11:57:47.513Z,96694.66
2022-11-03T12:00:22.439Z,96716.00
2022-11-03T12:02:50.857Z,96719.41
2022-11-03T12:05:21.038Z,96714.53
2022-11-03T12:07:50.123Z,96717.22
2022-11-03T12:10:19.177Z,96705.47
2022-11-03T12:12:49.206Z,96689.97
2022-11-03T12:15:47.216Z,96683.94
2022-11-03T12:18:35.086Z,96678.91
2022-11-03T12:21:07.114Z,96668.16
2022-11-03T12:23:37.192Z,96661.41
2022-11-03T12:26:05.585Z,96656.03
2022-11-03T12:28:36.392Z,96622.09
2022-11-03T12:31:04.894Z,96605.06
2022-11-03T12:33:33.230Z,96608.25
2022-11-03T12:36:01.672Z,96591.09
2022-11-03T12:38:30.325Z,96595.53
2022-11-03T12:41:18.649Z,96598.53
2022-11-03T12:43:48.786Z,96589.09
2022-11-03T12:46:17.643Z,96583.38
2022-11-03T12:48:49.223Z,96566.72
2022-11-03T12:51:18.433Z,96580.06
2022-11-03T12:53:47.079Z,96560.72
2022-11-03T12:56:15.836Z,96570.94
2022-11-03T12:58:44.430Z,96557.16
2022-11-03T13:01:14.353Z,96555.50
2022-11-03T13:03:43.540Z,96551.97
2022-11-03T13:06:14.794Z,96546.72
2022-11-03T13:08:45.594Z,96540.75
2022-11-03T13:11:28.770Z,96517.69
2022-11-03T13:13:57.051Z,96529.84
2022-11-03T13:16:26.706Z,96508.53
2022-11-03T13:18:55.016Z,96502.69
2022-11-03T13:21:23.269Z,96516.41
2022-11-03T13:26:38.847Z,96499.22
2022-11-03T13:29:07.136Z,96493.06
2022-11-03T13:31:40.173Z,96484.38
2022-11-03T13:34:10.437Z,96476.81
2022-11-03T13:36:40.949Z,96470.59
2022-11-03T13:39:09.675Z,96458.06
2022-11-03T13:41:38.333Z,96463.78
2022-11-03T13:44:06.683Z,96443.00
2022-11-03T13:46:36.614Z,96437.34
2022-11-03T13:51:53.915Z,96435.31
2022-11-03T14:00:03.724Z,96415.50
2022-11-03T14:05:23.106Z,96410.59
2022-11-03T14:07:51.683Z,96407.25
2022-11-03T14:10:20.442Z,96396.53
2022-11-03T14:12:49.054Z,96398.72
2022-11-03T14:15:17.330Z,96397.19
2022-11-03T14:17:47.046Z,96382.41
2022-11-03T14:20:16.964Z,96376.03
2022-11-03T14:22:45.838Z,96364.94
2022-11-03T14:25:14.529Z,96378.59
2022-11-03T14:27:43.224Z,96365.38
2022-11-03T14:30:12.941Z,96367.22
2022-11-03T14:32:41.427Z,96361.16
2022-11-03T14:35:11.731Z,96355.47
2022-11-03T14:37:40.384Z,96357.13
2022-11-03T14:40:30.352Z,96352.03
2022-11-03T14:42:58.696Z,96347.75
2022-11-03T14:45:27.139Z,96341.66
2022-11-03T14:47:57.696Z,96342.66
2022-11-03T14:50:30.091Z,96333.84
2022-11-03T14:53:00.051Z,96323.22
2022-11-03T14:55:28.732Z,96318.69
2022-11-03T14:57:57.134Z,96315.53
2022-11-03T15:00:26.561Z,96315.19
2022-11-03T15:02:55.146Z,96321.72
2022-11-03T15:05:37.328Z,96316.41
2022-11-03T15:08:07.514Z,96349.66
2022-11-03T15:10:36.108Z,96344.13
2022-11-03T15:13:04.690Z,96340.63
2022-11-03T15:15:33.296Z,96337.59
2022-11-03T15:18:03.162Z,96346.81
2022-11-03T15:20:31.778Z,96335.28
2022-11-03T15:25:49.679Z,96327.06
2022-11-03T15:28:18.102Z,96315.34
2022-11-03T15:30:46.604Z,96309.81
2022-11-03T15:33:15.512Z,96317.19
2022-11-03T15:35:44.477Z,96309.91
2022-11-03T15:38:13.064Z,96299.94
2022-11-03T15:40:41.579Z,96302.31
2022-11-03T15:43:11.293Z,96298.78
2022-11-03T15:45:40.763Z,96297.81
2022-11-03T15:48:09.694Z,96286.72
2022-11-03T15:50:38.248Z,96298.31
2022-11-03T15:53:06.869Z,96293.28
2022-11-03T15:55:35.333Z,96293.31
2022-11-03T15:58:06.909Z,96287.94
2022-11-03T16:00:41.891Z,96282.56
2022-11-03T16:03:11.822Z,96285.91
2022-11-03T16:05:40.561Z,96292.13
2022-11-03T16:08:09.666Z,96277.03
2022-11-03T16:10:38.421Z,96282.03
2022-11-03T16:13:08.036Z,96276.53
2022-11-03T16:15:37.778Z,96274.16
2022-11-03T16:18:06.501Z,96270.16
2022-11-03T16:20:37.831Z,96270.63
2022-11-03T16:23:06.175Z,96283.69
2022-11-03T16:25:40.060Z,96279.66
2022-11-03T16:28:11.225Z,96266.94
2022-11-03T16:30:46.388Z,96265.25
2022-11-03T16:33:20.065Z,96264.94
2022-11-03T16:35:48.894Z,96264.09
2022-11-03T16:38:29.697Z,96277.13
2022-11-03T16:41:00.407Z,96270.91
2022-11-03T16:43:28.901Z,96271.94
2022-11-03T16:45:59.307Z,96274.59
2022-11-03T16:48:27.722Z,96276.94
2022-11-03T16:50:58.185Z,96266.91
2022-11-03T16:53:26.570Z,96253.50
2022-11-03T16:55:55.329Z,96259.88
2022-11-03T16:58:23.633Z,96258.03
2022-11-03T17:00:51.996Z,96263.25
2022-11-03T17:03:21.711Z,96252.19
2022-11-03T17:05:50.010Z,96253.22
2022-11-03T17:08:46.803Z,96244.69
2022-11-03T17:11:06.606Z,96247.88
2022-11-03T17:13:34.999Z,96243.16
2022-11-03T17:16:03.222Z,96244.00
2022-11-03T17:18:33.012Z,96232.44
2022-11-03T17:21:01.307Z,96226.59
2022-11-03T17:23:29.978Z,96218.88
2022-11-03T17:25:58.342Z,96221.88
2022-11-03T17:28:26.915Z,96212.84
2022-11-03T17:30:55.147Z,96209.00
2022-11-03T17:33:23.436Z,96202.34
2022-11-03T17:35:54.020Z,96202.66
2022-11-03T17:38:23.240Z,96196.13
2022-11-03T17:40:52.194Z,96192.94
2022-11-03T17:43:22.668Z,96187.06
2022-11-03T17:45:51.015Z,96179.38
2022-11-03T17:48:19.569Z,96179.38
2022-11-03T17:50:48.770Z,96166.66
2022-11-03T17:53:22.525Z,96155.75
2022-11-03T17:56:08.813Z,96148.56
2022-11-03T17:58:46.191Z,96156.59
2022-11-03T18:01:16.489Z,96143.72
2022-11-03T18:03:44.805Z,96152.25
2022-11-03T18:06:19.681Z,96142.41
2022-11-03T18:08:49.587Z,96133.84
2022-11-03T18:11:34.169Z,96132.34
2022-11-03T18:14:03.373Z,96122.31
2022-11-03T18:16:31.912Z,96124.13
2022-11-03T18:19:00.293Z,96116.78
2022-11-03T18:21:28.532Z,96123.97
2022-11-03T18:23:58.949Z,96119.75
2022-11-03T18:26:27.674Z,96125.94
2022-11-03T18:28:55.944Z,96121.78
2022-11-03T18:31:25.948Z,96117.59
2022-11-03T18:33:54.215Z,96113.91
2022-11-03T18:36:22.446Z,96111.91
2022-11-03T18:38:57.394Z,96108.88
2022-11-03T18:41:39.617Z,96108.88
2022-11-03T18:44:13.850Z,96105.38
2022-11-03T18:46:42.199Z,96106.53
2022-11-03T18:49:10.512Z,96099.16
2022-11-03T18:51:39.092Z,96100.69
2022-11-03T18:54:07.446Z,96091.78
2022-11-03T18:56:38.287Z,96092.84
2022-11-03T18:59:06.706Z,96095.34
2022-11-03T19:01:35.198Z,96094.69
2022-11-03T19:04:03.935Z,96100.19
2022-11-03T19:06:32.174Z,96096.19
2022-11-03T19:09:00.690Z,96093.69
2022-11-03T19:11:28.934Z,96085.47
2022-11-03T19:13:58.565Z,96087.31
2022-11-03T19:16:26.777Z,96093.69
2022-11-03T19:18:55.093Z,96085.97
2022-11-03T19:21:25.197Z,96093.19
2022-11-03T19:23:57.993Z,96097.53
2022-11-03T19:26:29.472Z,96092.34
2022-11-03T19:29:02.033Z,96088.81
2022-11-03T19:31:32.336Z,96097.53
2022-11-03T19:34:00.576Z,96085.63
2022-11-03T19:36:28.876Z,96088.66
2022-11-03T19:38:57.398Z,96085.81
2022-11-03T19:41:40.504Z,96092.34
2022-11-03T19:44:12.314Z,96087.00
2022-11-03T19:46:40.900Z,96074.75
2022-11-03T19:49:11.082Z,96080.28
2022-11-03T19:51:39.881Z,96073.75
2022-11-03T19:54:12.232Z,96062.88
2022-11-03T19:56:40.509Z,96065.56
2022-11-03T19:59:12.298Z,96061.56
2022-11-03T20:01:40.992Z,96060.53
2022-11-03T20:04:09.520Z,96059.53
2022-11-03T20:06:38.298Z,96051.84
2022-11-03T20:09:07.793Z,96044.66
2022-11-03T20:11:36.500Z,96043.63
2022-11-03T20:14:04.876Z,96047.81
2022-11-03T20:16:35.632Z,96050.03
2022-11-03T20:19:13.539Z,96056.38
2022-11-03T20:21:44.750Z,96065.72
2022-11-03T20:24:13.209Z,96058.06
2022-11-03T20:26:41.735Z,96049.50
2022-11-03T20:29:12.178Z,96054.19
2022-11-03T20:31:41.877Z,96049.66
2022-11-03T20:34:11.658Z,96048.81
2022-11-03T20:36:40.413Z,96050.84
2022-11-03T20:39:10.762Z,96043.31
2022-11-03T20:41:39.000Z,96048.69
2022-11-03T20:44:07.326Z,96041.13
2022-11-03T20:46:35.590Z,96036.47
2022-11-03T20:49:05.187Z,96031.44
2022-11-03T20:51:34.617Z,96035.13
2022-11-03T20:54:03.575Z,96031.94
2022-11-03T20:56:31.792Z,96041.97
2022-11-03T20:59:00.070Z,96041.50
2022-11-03T21:01:33.385Z,96039.47
2022-11-03T21:04:02.363Z,96038.97
2022-11-03T21:06:32.813Z,96034.28
2022-11-03T21:09:02.034Z,96045.47
2022-11-03T21:11:31.392Z,96037.44
2022-11-03T21:14:00.305Z,96049.00
2022-11-03T21:16:43.858Z,96046.69
2022-11-03T21:19:30.310Z,96049.66
2022-11-03T21:22:00.187Z,96061.38
2022-11-03T21:24:28.429Z,96050.34
2022-11-03T21:26:56.702Z,96064.22
2022-11-03T21:29:46.031Z,96061.53
2022-11-03T21:32:14.516Z,96055.88
2022-11-03T21:34:42.832Z,96061.53
2022-11-03T21:37:13.450Z,96068.91
2022-11-03T21:39:41.816Z,96046.97
2022-11-03T21:42:24.412Z,96050.28
2022-11-03T21:44:52.638Z,96058.34
2022-11-03T21:47:21.534Z,96060.50
2022-11-03T21:49:49.127Z,96059.63
2022-11-03T21:52:19.577Z,96075.59
2022-11-03T21:54:48.079Z,96071.22
2022-11-03T21:57:16.663Z,96074.25
2022-11-03T21:59:44.871Z,96071.34
2022-11-03T22:02:13.205Z,96072.91
2022-11-03T22:04:41.900Z,96076.25
2022-11-03T22:07:10.150Z,96072.56
2022-11-03T22:09:39.757Z,96062.19
2022-11-03T22:12:10.361Z,96078.25
2022-11-03T22:14:52.589Z,96086.09
2022-11-03T22:17:20.834Z,96083.78
2022-11-03T22:20:02.830Z,96086.63
2022-11-03T22:22:44.862Z,96085.97
2022-11-03T22:25:28.226Z,96092.50
2022-11-03T22:27:56.901Z,96086.31
2022-11-03T22:30:39.250Z,96086.13
2022-11-03T22:33:07.464Z,96097.00
2022-11-03T22:35:49.501Z,96085.63
2022-11-03T22:38:18.767Z,96097.66
2022-11-03T22:41:02.768Z,96098.34
2022-11-03T22:43:45.064Z,96104.38
2022-11-03T22:46:14.097Z,96103.34
2022-11-03T22:48:42.323Z,96109.91
2022-11-03T22:51:11.648Z,96107.72
2022-11-03T22:53:53.661Z,96107.72
2022-11-03T22:56:23.629Z,96095.00
2022-11-03T22:58:51.838Z,96100.03
2022-11-03T23:01:21.288Z,96108.06
2022-11-03T23:03:50.121Z,96113.44
2022-11-03T23:06:19.166Z,96108.88
2022-11-03T23:08:47.930Z,96107.56
2022-11-03T23:11:17.471Z,96118.09
2022-11-03T23:13:47.706Z,96103.69
2022-11-03T23:16:17.680Z,96097.84
2022-11-03T23:18:59.832Z,96086.81
2022-11-03T23:21:29.370Z,96108.72
2022-11-03T23:24:11.543Z,96101.88
2022-11-03T23:26:39.758Z,96126.97
2022-11-03T23:29:09.464Z,96156.28
2022-11-03T23:31:38.496Z,96170.66
2022-11-03T23:34:06.790Z,96174.34
2022-11-03T23:36:35.063Z,96187.88
2022-11-03T23:39:03.490Z,96194.09
2022-11-03T23:41:31.845Z,96198.09
2022-11-03T23:44:00.065Z,96206.81
2022-11-03T23:46:43.871Z,96209.13
2022-11-03T23:49:12.232Z,96208.63
2022-11-03T23:51:42.079Z,96209.59
2022-11-03T23:54:11.351Z,96219.84
2022-11-03T23:56:54.283Z,96221.66
2022-11-03T23:59:22.838Z,96217.88
